createdAt,value
2022-11-15T00:02:40.999Z,7.20
2022-11-15T00:05:28.013Z,7.20
2022-11-15T00:08:15.556Z,7.20
2022-11-15T00:11:03.931Z,7.30
2022-11-15T00:13:50.921Z,7.30
2022-11-15T00:16:38.030Z,7.30
2022-11-15T00:19:25.037Z,7.30
2022-11-15T00:22:12.546Z,7.30
2022-11-15T00:24:59.503Z,7.30
2022-11-15T00:27:46.838Z,7.30
2022-11-15T00:30:33.960Z,7.30
2022-11-15T00:33:21.070Z,7.30
2022-11-15T00:36:11.848Z,7.30
2022-11-15T00:38:58.905Z,7.30
2022-11-15T00:41:46.217Z,7.30
2022-11-15T00:44:33.213Z,7.40
2022-11-15T00:47:20.195Z,7.40
2022-11-15T00:50:07.658Z,7.40
2022-11-15T00:52:54.611Z,7.40
2022-11-15T00:55:41.869Z,7.40
2022-11-15T00:58:28.898Z,7.30
2022-11-15T01:01:16.157Z,7.40
2022-11-15T01:04:03.191Z,7.40
2022-11-15T01:06:50.233Z,7.40
2022-11-15T01:09:37.424Z,7.40
2022-11-15T01:12:24.486Z,7.50
2022-11-15T01:15:11.760Z,7.40
2022-11-15T01:17:58.694Z,7.40
2022-11-15T01:20:46.840Z,7.40
2022-11-15T01:23:34.010Z,7.40
2022-11-15T01:26:21.403Z,7.40
2022-11-15T01:29:08.512Z,7.40
2022-11-15T01:31:55.804Z,7.40
2022-11-15T01:34:43.307Z,7.40
2022-11-15T01:37:30.317Z,7.40
2022-11-15T01:40:17.562Z,7.40
2022-11-15T01:43:21.096Z,7.40
2022-11-15T01:46:23.096Z,7.40
2022-11-15T01:49:17.582Z,7.40
2022-11-15T01:52:09.136Z,7.40
2022-11-15T01:55:19.693Z,7.30
2022-11-15T01:58:09.735Z,7.40
2022-11-15T02:00:57.046Z,7.40
2022-11-15T02:03:58.133Z,7.40
2022-11-15T02:06:46.762Z,7.40
2022-11-15T02:09:33.895Z,7.50
2022-11-15T02:12:22.896Z,7.50
2022-11-15T02:15:11.530Z,7.40
2022-11-15T02:18:24.652Z,7.40
2022-11-15T02:21:32.694Z,7.40
2022-11-15T02:24:39.589Z,7.30
2022-11-15T02:27:53.366Z,7.30
2022-11-15T02:30:51.286Z,7.30
2022-11-15T02:34:07.943Z,7.30
2022-11-15T02:37:23.029Z,7.40
2022-11-15T02:40:18.503Z,7.40
2022-11-15T02:43:32.328Z,7.40
2022-11-15T02:46:46.584Z,7.40
2022-11-15T02:49:36.011Z,7.40
2022-11-15T02:52:26.805Z,7.40
2022-11-15T02:55:34.871Z,7.40
2022-11-15T02:58:48.277Z,7.40
2022-11-15T03:01:41.791Z,7.40
2022-11-15T03:04:54.815Z,7.30
2022-11-15T03:08:02.812Z,7.30
2022-11-15T03:11:01.877Z,7.30
2022-11-15T03:14:08.562Z,7.30
2022-11-15T03:17:23.601Z,7.30
2022-11-15T03:20:13.561Z,7.30
2022-11-15T03:23:07.397Z,7.30
2022-11-15T03:25:57.361Z,7.30
2022-11-15T03:28:52.344Z,7.30
2022-11-15T03:31:50.705Z,7.40
2022-11-15T03:34:48.051Z,7.40
2022-11-15T03:37:49.693Z,7.50
2022-11-15T03:40:50.328Z,7.50
2022-11-15T03:43:48.634Z,7.40
2022-11-15T03:46:41.933Z,7.50
2022-11-15T03:49:33.833Z,7.50
2022-11-15T03:52:22.367Z,7.50
2022-11-15T03:55:13.947Z,7.50
2022-11-15T03:58:02.735Z,7.50
2022-11-15T04:00:50.034Z,7.40
2022-11-15T04:03:37.143Z,7.40
2022-11-15T04:06:24.611Z,7.30
2022-11-15T04:09:11.726Z,7.30
2022-11-15T04:11:59.431Z,7.30
2022-11-15T04:15:06.328Z,7.30
2022-11-15T04:17:56.250Z,7.30
2022-11-15T04:21:03.192Z,7.30
2022-11-15T04:24:10.054Z,7.30
2022-11-15T04:26:57.428Z,7.30
2022-11-15T04:29:44.451Z,7.30
2022-11-15T04:32:31.423Z,7.30
2022-11-15T04:35:18.638Z,7.30
2022-11-15T04:38:08.341Z,7.40
2022-11-15T04:40:55.392Z,7.40
2022-11-15T04:43:42.657Z,7.40
2022-11-15T04:46:29.995Z,7.40
2022-11-15T04:49:17.025Z,7.40
2022-11-15T04:52:04.995Z,7.40
2022-11-15T04:54:52.023Z,7.30
2022-11-15T04:57:39.838Z,7.30
2022-11-15T05:00:27.507Z,7.20
2022-11-15T05:03:35.341Z,7.20
2022-11-15T05:06:22.572Z,7.30
2022-11-15T05:09:09.851Z,7.30
2022-11-15T05:12:00.199Z,7.30
2022-11-15T05:14:47.724Z,7.30
2022-11-15T05:17:35.377Z,7.30
2022-11-15T05:20:22.396Z,7.30
2022-11-15T05:23:09.995Z,7.30
2022-11-15T05:26:05.044Z,7.20
2022-11-15T05:28:59.765Z,7.20
2022-11-15T05:31:47.274Z,7.20
2022-11-15T05:34:34.879Z,7.20
2022-11-15T05:37:22.663Z,7.10
2022-11-15T05:40:10.521Z,7.00
2022-11-15T05:42:58.968Z,7.00
2022-11-15T05:45:47.528Z,7.00
2022-11-15T05:48:37.344Z,7.10
2022-11-15T05:51:25.555Z,7.00
2022-11-15T05:54:13.231Z,7.00
2022-11-15T05:57:01.704Z,7.00
2022-11-15T05:59:49.192Z,7.00
2022-11-15T06:02:37.181Z,7.00
2022-11-15T06:05:24.235Z,7.00
2022-11-15T06:08:11.418Z,7.00
2022-11-15T06:11:03.655Z,7.00
2022-11-15T06:13:51.329Z,7.00
2022-11-15T06:16:38.464Z,7.00
2022-11-15T06:19:25.460Z,7.00
2022-11-15T06:22:12.458Z,7.00
2022-11-15T06:25:04.964Z,6.90
2022-11-15T06:27:55.314Z,6.90
2022-11-15T06:30:42.303Z,6.90
2022-11-15T06:33:29.754Z,6.90
2022-11-15T06:36:18.321Z,6.90
2022-11-15T06:39:05.972Z,6.90
2022-11-15T06:41:52.945Z,6.90
2022-11-15T06:44:40.152Z,6.90
2022-11-15T06:47:27.174Z,6.90
2022-11-15T06:50:14.729Z,7.00
2022-11-15T06:53:04.387Z,7.00
2022-11-15T06:55:55.499Z,7.00
2022-11-15T06:58:42.845Z,7.10
2022-11-15T07:01:30.313Z,7.10
2022-11-15T07:04:17.324Z,7.10
2022-11-15T07:07:04.609Z,7.10
2022-11-15T07:09:51.596Z,7.20
2022-11-15T07:12:38.829Z,7.20
2022-11-15T07:15:27.336Z,7.20
2022-11-15T07:18:14.616Z,7.20
2022-11-15T07:21:03.101Z,7.20
2022-11-15T07:23:50.304Z,7.30
2022-11-15T07:26:37.237Z,7.40
2022-11-15T07:29:24.405Z,7.40
2022-11-15T07:32:11.531Z,7.40
2022-11-15T07:34:58.694Z,7.50
2022-11-15T07:37:53.602Z,7.50
2022-11-15T07:40:40.952Z,7.60
2022-11-15T07:43:31.172Z,7.50
2022-11-15T07:46:18.309Z,7.60
2022-11-15T07:49:05.800Z,7.70
2022-11-15T07:51:52.749Z,7.80
2022-11-15T07:54:40.302Z,8.00
2022-11-15T07:57:27.323Z,8.10
2022-11-15T08:00:16.006Z,8.30
2022-11-15T08:03:05.669Z,8.30
2022-11-15T08:05:53.298Z,8.40
2022-11-15T08:08:40.867Z,8.40
2022-11-15T08:11:27.927Z,8.40
2022-11-15T08:14:14.972Z,8.30
2022-11-15T08:17:02.454Z,8.30
2022-11-15T08:19:49.499Z,8.20
2022-11-15T08:22:37.205Z,8.30
2022-11-15T08:25:27.486Z,8.20
2022-11-15T08:28:17.238Z,8.20
2022-11-15T08:31:05.643Z,8.30
2022-11-15T08:33:52.621Z,8.30
2022-11-15T08:36:44.858Z,8.30
2022-11-15T08:39:33.478Z,8.30
2022-11-15T08:42:20.928Z,8.40
2022-11-15T08:45:09.526Z,8.40
2022-11-15T08:47:57.231Z,8.50
2022-11-15T08:50:45.042Z,8.50
2022-11-15T08:53:32.446Z,8.50
2022-11-15T08:56:19.583Z,8.50
2022-11-15T08:59:06.714Z,8.50
2022-11-15T09:01:53.727Z,8.50
2022-11-15T09:04:42.789Z,8.60
2022-11-15T09:07:31.077Z,8.60
2022-11-15T09:10:18.219Z,8.60
2022-11-15T09:13:05.255Z,8.70
2022-11-15T09:15:52.241Z,8.70
2022-11-15T09:18:39.361Z,8.60
2022-11-15T09:21:26.860Z,8.60
2022-11-15T09:24:13.906Z,8.70
2022-11-15T09:27:01.488Z,8.70
2022-11-15T09:29:48.565Z,8.70
2022-11-15T09:32:39.171Z,8.70
2022-11-15T09:35:27.017Z,8.70
2022-11-15T09:38:14.047Z,8.70
2022-11-15T09:41:23.305Z,8.70
2022-11-15T09:44:25.239Z,8.80
2022-11-15T09:47:32.855Z,8.80
2022-11-15T09:50:35.224Z,8.80
2022-11-15T09:53:02.726Z,8.80
2022-11-15T09:55:40.291Z,8.80
2022-11-15T09:58:30.696Z,8.90
2022-11-15T10:01:01.403Z,9.00
2022-11-15T10:03:36.412Z,9.10
2022-11-15T10:06:06.322Z,9.10
2022-11-15T10:08:53.315Z,9.10
2022-11-15T10:11:38.270Z,9.20
2022-11-15T10:14:28.822Z,9.30
2022-11-15T10:16:59.430Z,9.20
2022-11-15T10:19:42.128Z,9.40
2022-11-15T10:22:42.044Z,9.40
2022-11-15T10:25:11.002Z,9.50
2022-11-15T10:27:42.246Z,9.50
2022-11-15T10:30:18.883Z,9.50
2022-11-15T10:32:49.152Z,9.60
2022-11-15T10:35:32.944Z,9.60
2022-11-15T10:38:08.676Z,9.70
2022-11-15T10:40:37.594Z,9.80
2022-11-15T10:43:18.461Z,9.80
2022-11-15T10:45:47.393Z,9.80
2022-11-15T10:48:15.268Z,9.80
2022-11-15T10:50:45.452Z,9.80
2022-11-15T10:53:35.007Z,9.70
2022-11-15T10:56:09.661Z,9.70
2022-11-15T10:58:41.318Z,9.70
2022-11-15T11:01:26.701Z,9.70
2022-11-15T11:04:10.806Z,9.70
2022-11-15T11:06:54.207Z,9.70
2022-11-15T11:09:30.066Z,9.60
2022-11-15T11:11:57.557Z,9.50
2022-11-15T11:14:28.478Z,9.40
2022-11-15T11:16:57.315Z,9.40
2022-11-15T11:19:49.570Z,9.40
2022-11-15T11:22:25.014Z,9.40
2022-11-15T11:24:56.598Z,9.30
2022-11-15T11:27:41.669Z,9.30
2022-11-15T11:30:11.280Z,9.30
2022-11-15T11:32:58.468Z,9.40
2022-11-15T11:35:33.639Z,9.40
2022-11-15T11:38:40.608Z,9.40
2022-11-15T11:41:08.105Z,9.60
2022-11-15T11:44:15.444Z,9.70
2022-11-15T11:47:10.674Z,9.80
2022-11-15T11:49:48.003Z,9.80
2022-11-15T11:52:23.134Z,9.70
2022-11-15T11:55:14.600Z,9.70
2022-11-15T11:57:45.360Z,9.80
2022-11-15T12:00:23.559Z,9.80
2022-11-15T12:03:03.759Z,9.70
2022-11-15T12:05:38.712Z,9.80
2022-11-15T12:08:25.799Z,9.70
2022-11-15T12:11:10.332Z,9.70
2022-11-15T12:13:38.289Z,9.70
2022-11-15T12:16:28.565Z,9.60
2022-11-15T12:19:00.136Z,9.70
2022-11-15T12:21:50.110Z,9.70
2022-11-15T12:24:21.894Z,9.60
2022-11-15T12:26:52.434Z,9.60
2022-11-15T12:29:50.385Z,9.60
2022-11-15T12:32:26.952Z,9.70
2022-11-15T12:34:56.108Z,9.70
2022-11-15T12:37:39.251Z,9.60
2022-11-15T12:40:21.076Z,9.60
2022-11-15T12:43:19.486Z,9.50
2022-11-15T12:45:47.615Z,9.50
2022-11-15T12:48:18.117Z,9.50
2022-11-15T12:50:55.966Z,9.40
2022-11-15T12:53:24.604Z,9.30
2022-11-15T12:56:12.932Z,9.40
2022-11-15T12:58:59.211Z,9.40
2022-11-15T13:01:34.315Z,9.40
2022-11-15T13:04:22.539Z,9.30
2022-11-15T13:06:49.776Z,9.30
2022-11-15T13:09:36.810Z,9.30
2022-11-15T13:12:25.342Z,9.30
2022-11-15T13:14:52.559Z,9.40
2022-11-15T13:17:21.016Z,9.40
2022-11-15T13:19:53.581Z,9.30
2022-11-15T13:22:41.050Z,9.40
2022-11-15T13:25:21.220Z,9.30
2022-11-15T13:27:50.972Z,9.30
2022-11-15T13:30:23.818Z,9.30
2022-11-15T13:32:52.518Z,9.40
2022-11-15T13:35:24.985Z,9.40
2022-11-15T13:37:53.510Z,9.40
2022-11-15T13:40:38.201Z,9.40
2022-11-15T13:43:29.514Z,9.50
2022-11-15T13:46:16.759Z,9.60
2022-11-15T13:48:46.308Z,9.60
2022-11-15T13:51:34.494Z,9.70
2022-11-15T13:54:25.587Z,9.60
2022-11-15T13:56:56.937Z,9.60
2022-11-15T13:59:30.090Z,9.50
2022-11-15T14:02:05.186Z,9.50
2022-11-15T14:04:35.354Z,9.50
2022-11-15T14:07:03.982Z,9.50
2022-11-15T14:09:34.411Z,9.50
2022-11-15T14:12:21.928Z,9.50
2022-11-15T14:14:49.686Z,9.40
2022-11-15T14:17:40.737Z,9.50
2022-11-15T14:20:36.217Z,9.50
2022-11-15T14:23:19.291Z,9.50
2022-11-15T14:26:04.361Z,9.50
2022-11-15T14:28:39.103Z,9.50
2022-11-15T14:31:14.083Z,9.50
2022-11-15T14:33:42.483Z,9.50
2022-11-15T14:36:20.707Z,9.50
2022-11-15T14:38:48.840Z,9.40
2022-11-15T14:41:27.537Z,9.40
2022-11-15T14:43:54.998Z,9.30
2022-11-15T14:46:22.424Z,9.30
2022-11-15T14:48:49.773Z,9.30
2022-11-15T14:51:19.150Z,9.30
2022-11-15T14:53:47.729Z,9.30
2022-11-15T14:56:16.183Z,9.30
2022-11-15T14:58:44.022Z,9.20
2022-11-15T15:01:17.604Z,9.30
2022-11-15T15:03:45.427Z,9.20
2022-11-15T15:06:17.910Z,9.20
2022-11-15T15:08:49.110Z,9.20
2022-11-15T15:11:33.872Z,9.10
2022-11-15T15:14:02.543Z,9.10
2022-11-15T15:16:29.840Z,9.20
2022-11-15T15:18:57.512Z,9.20
2022-11-15T15:21:32.332Z,9.20
2022-11-15T15:24:01.889Z,9.20
2022-11-15T15:26:34.782Z,9.20
2022-11-15T15:29:02.382Z,9.20
2022-11-15T15:31:29.453Z,9.20
2022-11-15T15:33:56.908Z,9.10
2022-11-15T15:36:24.050Z,9.20
2022-11-15T15:38:51.211Z,9.20
2022-11-15T15:41:18.747Z,9.10
2022-11-15T15:43:45.994Z,9.10
2022-11-15T15:46:15.761Z,9.10
2022-11-15T15:48:42.993Z,9.20
2022-11-15T15:51:18.495Z,9.10
2022-11-15T15:53:47.529Z,9.10
2022-11-15T15:56:15.534Z,9.10
2022-11-15T15:58:42.629Z,9.20
2022-11-15T16:01:09.939Z,9.20
2022-11-15T16:03:37.215Z,9.20
2022-11-15T16:06:06.242Z,9.20
2022-11-15T16:08:53.454Z,9.20
2022-11-15T16:11:21.227Z,9.20
2022-11-15T16:13:48.646Z,9.20
2022-11-15T16:16:16.101Z,9.20
2022-11-15T16:18:43.177Z,9.20
2022-11-15T16:21:10.604Z,9.30
2022-11-15T16:23:38.012Z,9.20
2022-11-15T16:26:21.159Z,9.20
2022-11-15T16:28:48.970Z,9.20
2022-11-15T16:31:19.341Z,9.20
2022-11-15T16:33:47.524Z,9.20
2022-11-15T16:36:34.178Z,9.20
2022-11-15T16:39:04.966Z,9.20
2022-11-15T16:41:32.551Z,9.20
2022-11-15T16:43:59.717Z,9.20
2022-11-15T16:46:28.527Z,9.20
2022-11-15T16:48:55.906Z,9.20
2022-11-15T16:51:23.593Z,9.30
2022-11-15T16:53:50.765Z,9.20
2022-11-15T16:56:24.171Z,9.20
2022-11-15T16:58:51.547Z,9.20
2022-11-15T17:01:24.101Z,9.20
2022-11-15T17:03:51.564Z,9.20
2022-11-15T17:06:19.165Z,9.20
2022-11-15T17:08:47.183Z,9.20
2022-11-15T17:11:18.938Z,9.20
2022-11-15T17:13:46.878Z,9.20
2022-11-15T17:16:16.190Z,9.20
2022-11-15T17:18:45.840Z,9.20
2022-11-15T17:21:16.392Z,9.20
2022-11-15T17:23:43.791Z,9.10
2022-11-15T17:26:28.934Z,9.10
2022-11-15T17:28:59.366Z,9.10
2022-11-15T17:31:27.171Z,9.10
2022-11-15T17:33:54.939Z,9.10
2022-11-15T17:36:22.899Z,9.10
2022-11-15T17:38:58.030Z,9.10
2022-11-15T17:41:25.376Z,9.10
2022-11-15T17:43:53.487Z,9.00
2022-11-15T17:46:21.630Z,9.10
2022-11-15T17:48:49.453Z,9.00
2022-11-15T17:51:18.705Z,9.00
2022-11-15T17:53:47.581Z,9.00
2022-11-15T17:56:17.915Z,9.00
2022-11-15T17:58:51.425Z,9.00
2022-11-15T18:01:22.826Z,9.00
2022-11-15T18:03:50.686Z,9.00
2022-11-15T18:06:18.852Z,9.00
2022-11-15T18:08:48.478Z,9.10
2022-11-15T18:11:20.952Z,9.10
2022-11-15T18:13:52.353Z,9.10
2022-11-15T18:16:22.654Z,9.10
2022-11-15T18:18:50.014Z,9.10
2022-11-15T18:21:18.994Z,9.10
2022-11-15T18:23:48.246Z,9.10
2022-11-15T18:26:18.416Z,9.10
2022-11-15T18:28:49.833Z,9.10
2022-11-15T18:31:22.854Z,9.00
2022-11-15T18:33:51.656Z,9.10
2022-11-15T18:36:23.428Z,9.10
2022-11-15T18:39:00.682Z,9.10
2022-11-15T18:41:30.052Z,9.00
2022-11-15T18:43:59.016Z,9.00
2022-11-15T18:46:29.049Z,9.00
2022-11-15T18:48:57.127Z,9.00
2022-11-15T18:51:26.938Z,9.00
2022-11-15T18:53:55.995Z,9.00
2022-11-15T18:56:24.098Z,9.00
2022-11-15T18:58:54.722Z,9.00
2022-11-15T19:01:25.247Z,9.00
2022-11-15T19:03:54.908Z,9.00
2022-11-15T19:06:26.610Z,9.00
2022-11-15T19:08:56.783Z,9.00
2022-11-15T19:11:29.086Z,9.00
2022-11-15T19:13:57.171Z,9.00
2022-11-15T19:16:24.955Z,8.90
2022-11-15T19:18:55.564Z,9.00
2022-11-15T19:21:23.504Z,9.00
2022-11-15T19:23:51.086Z,9.00
2022-11-15T19:26:18.164Z,8.90
2022-11-15T19:28:45.967Z,9.00
2022-11-15T19:31:15.202Z,8.90
2022-11-15T19:33:43.509Z,8.90
2022-11-15T19:36:15.538Z,8.90
2022-11-15T19:38:43.394Z,8.90
2022-11-15T19:41:14.221Z,8.90
2022-11-15T19:43:42.538Z,8.90
2022-11-15T19:46:12.562Z,8.90
2022-11-15T19:48:40.245Z,8.90
2022-11-15T19:51:12.019Z,8.90
2022-11-15T19:53:40.423Z,8.90
2022-11-15T19:56:12.252Z,8.90
2022-11-15T19:58:40.879Z,8.90
2022-11-15T20:01:19.291Z,8.90
2022-11-15T20:03:48.393Z,8.90
2022-11-15T20:06:18.339Z,8.80
2022-11-15T20:08:48.027Z,8.80
2022-11-15T20:11:16.882Z,8.80
2022-11-15T20:13:44.245Z,8.80
2022-11-15T20:16:20.332Z,8.80
2022-11-15T20:18:49.486Z,8.80
2022-11-15T20:21:17.849Z,8.80
2022-11-15T20:23:45.583Z,8.80
2022-11-15T20:26:15.277Z,8.70
2022-11-15T20:28:44.884Z,8.70
2022-11-15T20:31:13.228Z,8.70
2022-11-15T20:33:40.889Z,8.60
2022-11-15T20:36:13.146Z,8.70
2022-11-15T20:38:41.227Z,8.60
2022-11-15T20:41:08.525Z,8.60
2022-11-15T20:43:35.847Z,8.60
2022-11-15T20:46:03.277Z,8.60
2022-11-15T20:48:30.806Z,8.60
2022-11-15T20:51:07.177Z,8.60
2022-11-15T20:53:35.359Z,8.70
2022-11-15T20:56:07.707Z,8.70
2022-11-15T20:58:36.564Z,8.70
2022-11-15T21:01:06.108Z,8.70
2022-11-15T21:03:34.296Z,8.70
2022-11-15T21:06:01.712Z,8.70
2022-11-15T21:08:48.818Z,8.70
2022-11-15T21:11:36.127Z,8.70
2022-11-15T21:14:08.798Z,8.60
2022-11-15T21:16:37.119Z,8.60
2022-11-15T21:19:04.384Z,8.60
2022-11-15T21:21:31.865Z,8.60
2022-11-15T21:23:59.002Z,8.50
2022-11-15T21:26:27.289Z,8.50
2022-11-15T21:28:54.707Z,8.50
2022-11-15T21:31:22.999Z,8.50
2022-11-15T21:33:50.462Z,8.40
2022-11-15T21:36:18.132Z,8.40
2022-11-15T21:38:45.277Z,8.50
2022-11-15T21:41:12.736Z,8.40
2022-11-15T21:43:39.967Z,8.30
2022-11-15T21:46:07.540Z,8.30
2022-11-15T21:48:36.486Z,8.20
2022-11-15T21:51:06.201Z,8.10
2022-11-15T21:53:34.468Z,8.10
2022-11-15T21:56:02.585Z,8.10
2022-11-15T21:58:31.680Z,8.10
2022-11-15T22:01:19.596Z,8.10
2022-11-15T22:03:47.110Z,8.10
2022-11-15T22:06:17.819Z,8.10
2022-11-15T22:08:46.527Z,8.00
2022-11-15T22:11:14.816Z,8.10
2022-11-15T22:13:42.678Z,8.10
2022-11-15T22:16:11.066Z,8.00
2022-11-15T22:18:38.840Z,8.00
2022-11-15T22:21:10.573Z,8.10
2022-11-15T22:23:38.471Z,8.10
2022-11-15T22:26:07.104Z,8.00
2022-11-15T22:28:34.883Z,8.10
2022-11-15T22:31:02.922Z,8.10
2022-11-15T22:33:31.673Z,8.10
2022-11-15T22:35:59.326Z,8.00
2022-11-15T22:38:27.284Z,7.90
2022-11-15T22:40:54.825Z,7.80
2022-11-15T22:43:25.344Z,7.80
2022-11-15T22:45:53.410Z,7.70
2022-11-15T22:48:22.534Z,7.80
2022-11-15T22:50:51.009Z,7.80
2022-11-15T22:53:19.170Z,7.80
2022-11-15T22:55:57.390Z,7.80
2022-11-15T22:58:27.252Z,7.70
2022-11-15T23:00:57.560Z,7.70
2022-11-15T23:03:26.186Z,7.70
2022-11-15T23:05:53.497Z,7.70
2022-11-15T23:08:23.157Z,7.70
2022-11-15T23:11:10.273Z,7.80
2022-11-15T23:13:37.674Z,7.80
2022-11-15T23:16:26.103Z,7.70
2022-11-15T23:18:57.652Z,7.70
2022-11-15T23:21:49.759Z,7.70
2022-11-15T23:24:18.069Z,7.70
2022-11-15T23:26:46.957Z,7.70
2022-11-15T23:29:16.634Z,7.70
2022-11-15T23:32:04.338Z,7.70
2022-11-15T23:34:32.930Z,7.70
2022-11-15T23:37:00.829Z,7.70
2022-11-15T23:39:28.864Z,7.80
2022-11-15T23:41:56.326Z,7.80
2022-11-15T23:44:24.289Z,7.80
2022-11-15T23:46:52.072Z,7.70
2022-11-15T23:49:19.493Z,7.60
2022-11-15T23:51:47.766Z,7.60
2022-11-15T23:54:15.243Z,7.50
2022-11-15T23:56:42.718Z,7.50
2022-11-15T23:59:09.915Z,7.50
